Time;durP1;ratioP1;P1;durP2;ratioP2;P2;SDS_P1;SDS_P2;PMS_P1;PMS_P2;Temp;Humidity;BMP_temperature;BMP_pressure;BME280_temperature;BME280_humidity;BME280_pressure;Samples;Min_cycle;Max_cycle;Signal;HPM_P1;HPM_P2
2023/04/27 00:01:50;;;;;;;9.70;8.10;;;;;;;;;;5014833;28;20661;-69
2023/04/27 00:04:16;;;;;;;17.30;8.13;;;;;;;;;;5014533;28;20200;-69
2023/04/27 00:06:42;;;;;;;12.80;7.40;;;;;;;;;;5015256;28;20180;-70
2023/04/27 00:09:08;;;;;;;10.00;7.63;;;;;;;;;;5014869;28;20204;-69
2023/04/27 00:11:34;;;;;;;13.60;8.67;;;;;;;;;;4997137;28;20210;-71
2023/04/27 00:14:00;;;;;;;12.03;8.73;;;;;;;;;;5015100;28;20203;-70
2023/04/27 00:16:26;;;;;;;12.43;8.07;;;;;;;;;;5015019;28;20176;-69
2023/04/27 00:18:52;;;;;;;10.57;7.90;;;;;;;;;;4996846;28;20293;-69
2023/04/27 00:21:18;;;;;;;12.53;9.17;;;;;;;;;;5015045;28;20176;-68
2023/04/27 00:23:44;;;;;;;10.57;8.03;;;;;;;;;;4997165;28;20711;-69
2023/04/27 00:26:10;;;;;;;18.33;11.37;;;;;;;;;;4998659;28;20180;-68
2023/04/27 00:28:36;;;;;;;16.73;11.23;;;;;;;;;;4997834;28;20190;-68
2023/04/27 00:31:03;;;;;;;22.77;14.67;;;;;;;;;;4997477;28;20230;-69
2023/04/27 00:33:29;;;;;;;24.97;16.63;;;;;;;;;;4997626;28;20583;-68
2023/04/27 00:35:59;;;;;;;21.27;13.43;;;;;;;;;;4997481;28;20642;-70
2023/04/27 00:38:25;;;;;;;35.33;18.00;;;;;;;;;;5015400;28;20176;-69
2023/04/27 00:40:51;;;;;;;17.83;9.70;;;;;;;;;;5015031;28;20233;-68
2023/04/27 00:43:17;;;;;;;17.90;11.13;;;;;;;;;;4997571;28;20257;-68
2023/04/27 00:45:43;;;;;;;27.87;15.80;;;;;;;;;;5000044;28;20187;-73
2023/04/27 00:48:12;;;;;;;29.60;16.40;;;;;;;;;;5018541;28;20273;-69
2023/04/27 00:50:39;;;;;;;26.90;15.87;;;;;;;;;;5019147;28;20262;-69
2023/04/27 00:53:06;;;;;;;20.40;11.77;;;;;;;;;;5001142;28;20693;-68
2023/04/27 00:55:32;;;;;;;13.93;9.03;;;;;;;;;;5001672;28;20176;-68
2023/04/27 00:57:58;;;;;;;15.47;8.63;;;;;;;;;;5018837;28;20215;-69
2023/04/27 01:00:24;;;;;;;16.80;9.97;;;;;;;;;;5000992;28;20179;-68
2023/04/27 01:02:51;;;;;;;15.10;10.67;;;;;;;;;;5018558;28;20576;-68
2023/04/27 01:05:18;;;;;;;13.23;9.87;;;;;;;;;;5000953;28;20183;-69
2023/04/27 01:07:44;;;;;;;15.83;10.33;;;;;;;;;;5000833;28;20658;-69
2023/04/27 01:10:10;;;;;;;18.40;10.60;;;;;;;;;;5018610;28;20259;-69
2023/04/27 01:12:36;;;;;;;18.00;10.00;;;;;;;;;;5018714;28;20214;-67
2023/04/27 01:15:02;;;;;;;15.90;10.13;;;;;;;;;;5017764;28;20310;-70
2023/04/27 01:17:28;;;;;;;17.00;10.37;;;;;;;;;;5000229;28;20210;-68
2023/04/27 01:19:55;;;;;;;18.30;10.50;;;;;;;;;;5018368;28;20199;-68
2023/04/27 01:22:21;;;;;;;15.87;9.23;;;;;;;;;;4999855;28;20654;-67
2023/04/27 01:24:47;;;;;;;13.33;9.43;;;;;;;;;;5016796;28;20207;-67
2023/04/27 01:27:13;;;;;;;12.63;8.90;;;;;;;;;;4998740;28;20621;-69
2023/04/27 01:29:40;;;;;;;17.60;10.53;;;;;;;;;;5017740;28;20208;-67
2023/04/27 01:32:06;;;;;;;16.37;10.60;;;;;;;;;;5019155;28;20207;-67
2023/04/27 01:34:32;;;;;;;15.60;11.03;;;;;;;;;;5020929;28;20219;-67
2023/04/27 01:36:58;;;;;;;13.10;9.83;;;;;;;;;;5000782;28;20180;-67
2023/04/27 01:39:24;;;;;;;15.17;10.17;;;;;;;;;;5000481;28;20211;-68
2023/04/27 01:41:50;;;;;;;15.63;9.83;;;;;;;;;;5018186;28;20716;-68
2023/04/27 01:44:16;;;;;;;15.57;9.87;;;;;;;;;;5000247;28;20298;-67
2023/04/27 01:46:42;;;;;;;14.33;9.97;;;;;;;;;;5017705;28;20649;-67
2023/04/27 01:49:08;;;;;;;11.83;8.97;;;;;;;;;;5018004;28;20222;-69
2023/04/27 01:51:34;;;;;;;17.13;10.40;;;;;;;;;;5017561;28;20759;-67
2023/04/27 01:54:00;;;;;;;12.20;9.57;;;;;;;;;;5017636;28;20196;-67
2023/04/27 01:56:26;;;;;;;12.20;9.07;;;;;;;;;;4999815;28;20187;-68
2023/04/27 01:58:52;;;;;;;11.13;8.93;;;;;;;;;;5017162;28;20172;-70
2023/04/27 02:01:18;;;;;;;17.27;10.53;;;;;;;;;;5017755;28;20245;-67
2023/04/27 02:03:44;;;;;;;16.43;10.03;;;;;;;;;;5017222;28;20682;-68
2023/04/27 02:06:10;;;;;;;13.07;9.60;;;;;;;;;;4999655;28;20195;-68
2023/04/27 02:08:36;;;;;;;14.00;9.77;;;;;;;;;;4999720;28;20186;-67
2023/04/27 02:11:02;;;;;;;14.67;9.40;;;;;;;;;;5017225;28;20191;-68
2023/04/27 02:13:28;;;;;;;13.33;9.70;;;;;;;;;;5016814;28;20200;-68
2023/04/27 02:15:55;;;;;;;14.57;9.40;;;;;;;;;;5017013;28;20176;-68
2023/04/27 02:18:21;;;;;;;16.53;10.50;;;;;;;;;;5017157;28;20255;-67
2023/04/27 02:20:47;;;;;;;11.70;9.60;;;;;;;;;;4999501;28;20182;-71
2023/04/27 02:23:13;;;;;;;14.53;9.13;;;;;;;;;;4999465;28;20204;-69
2023/04/27 02:25:41;;;;;;;15.00;10.07;;;;;;;;;;5017686;28;20700;-70
2023/04/27 02:28:07;;;;;;;14.23;9.30;;;;;;;;;;5016763;28;20211;-69
2023/04/27 02:30:33;;;;;;;15.10;9.70;;;;;;;;;;5017183;28;20184;-67
2023/04/27 02:33:00;;;;;;;15.97;10.17;;;;;;;;;;5016833;28;20276;-68
2023/04/27 02:35:26;;;;;;;15.37;10.23;;;;;;;;;;4999517;28;20266;-68
2023/04/27 02:37:52;;;;;;;16.43;9.80;;;;;;;;;;5016836;28;20187;-67
2023/04/27 02:40:18;;;;;;;15.73;9.30;;;;;;;;;;4998987;28;20180;-68
2023/04/27 02:42:44;;;;;;;13.57;10.00;;;;;;;;;;4998648;28;20191;-68
2023/04/27 02:45:10;;;;;;;13.27;8.93;;;;;;;;;;4999184;28;20187;-68
2023/04/27 02:47:36;;;;;;;15.10;9.67;;;;;;;;;;5016856;28;20180;-68
2023/04/27 02:50:02;;;;;;;14.77;10.43;;;;;;;;;;5016497;28;20215;-68
2023/04/27 02:52:29;;;;;;;17.20;9.63;;;;;;;;;;5016547;28;20258;-66
2023/04/27 02:54:55;;;;;;;16.27;10.37;;;;;;;;;;5016850;28;20678;-68
2023/04/27 02:57:21;;;;;;;14.27;9.90;;;;;;;;;;5016295;28;20179;-68
2023/04/27 02:59:47;;;;;;;14.33;10.30;;;;;;;;;;5016379;28;20698;-68
2023/04/27 03:02:13;;;;;;;16.70;10.57;;;;;;;;;;4999204;28;20183;-68
2023/04/27 03:04:39;;;;;;;12.73;10.27;;;;;;;;;;4999800;28;20582;-68
2023/04/27 03:07:05;;;;;;;16.33;11.03;;;;;;;;;;5015797;28;20183;-69
2023/04/27 03:09:31;;;;;;;19.63;10.60;;;;;;;;;;4998507;28;20183;-68
2023/04/27 03:11:57;;;;;;;15.67;9.93;;;;;;;;;;5016446;28;20234;-69
2023/04/27 03:14:23;;;;;;;16.30;10.37;;;;;;;;;;5016628;28;20585;-70
2023/04/27 03:16:49;;;;;;;16.23;10.43;;;;;;;;;;5016560;28;20557;-68
2023/04/27 03:19:15;;;;;;;17.37;11.10;;;;;;;;;;4998530;28;20263;-67
2023/04/27 03:21:41;;;;;;;16.07;10.47;;;;;;;;;;5015998;28;20218;-68
2023/04/27 03:24:07;;;;;;;16.23;10.90;;;;;;;;;;4998173;28;20203;-69
2023/04/27 03:26:33;;;;;;;13.50;8.80;;;;;;;;;;5016257;28;20184;-68
2023/04/27 03:28:59;;;;;;;18.57;10.23;;;;;;;;;;5016179;28;20222;-68
2023/04/27 03:31:26;;;;;;;12.43;9.20;;;;;;;;;;4998231;28;20208;-69
2023/04/27 03:33:52;;;;;;;11.97;8.63;;;;;;;;;;5015752;28;20587;-68
2023/04/27 03:36:18;;;;;;;14.33;9.47;;;;;;;;;;5016306;28;20176;-68
2023/04/27 03:38:43;;;;;;;14.67;9.63;;;;;;;;;;5016039;28;20184;-72
2023/04/27 03:41:10;;;;;;;18.87;10.17;;;;;;;;;;4998353;28;20187;-66
2023/04/27 03:43:36;;;;;;;16.37;9.50;;;;;;;;;;4998907;28;20290;-68
2023/04/27 03:46:02;;;;;;;18.83;9.67;;;;;;;;;;5016891;28;20582;-68
2023/04/27 03:48:28;;;;;;;14.30;9.57;;;;;;;;;;5000803;28;20183;-69
2023/04/27 03:50:54;;;;;;;14.40;9.73;;;;;;;;;;5016739;28;20172;-68
2023/04/27 03:53:20;;;;;;;17.50;10.37;;;;;;;;;;4998040;28;20283;-68
2023/04/27 03:55:46;;;;;;;16.60;10.07;;;;;;;;;;4998122;28;20183;-69
2023/04/27 03:58:12;;;;;;;14.60;9.50;;;;;;;;;;5015370;28;20183;-68
2023/04/27 04:00:39;;;;;;;15.67;10.43;;;;;;;;;;5015575;28;20180;-69
2023/04/27 04:03:05;;;;;;;18.73;10.60;;;;;;;;;;5015667;28;20196;-67
2023/04/27 04:05:31;;;;;;;19.13;10.43;;;;;;;;;;5015737;28;20215;-69
2023/04/27 04:07:57;;;;;;;12.40;8.77;;;;;;;;;;5015881;28;20184;-67
2023/04/27 04:10:24;;;;;;;19.90;9.80;;;;;;;;;;5016022;28;20656;-68
2023/04/27 04:12:50;;;;;;;14.47;9.73;;;;;;;;;;4997639;28;20222;-68
2023/04/27 04:15:17;;;;;;;19.50;9.77;;;;;;;;;;5015591;28;20179;-69
2023/04/27 04:17:43;;;;;;;22.10;9.63;;;;;;;;;;4998531;28;20596;-69
2023/04/27 04:20:09;;;;;;;16.33;9.07;;;;;;;;;;4999807;28;20249;-68
2023/04/27 04:22:36;;;;;;;18.50;9.17;;;;;;;;;;5019271;28;20211;-68
2023/04/27 04:25:03;;;;;;;11.83;9.17;;;;;;;;;;5018653;28;20646;-68
2023/04/27 04:27:29;;;;;;;15.00;9.30;;;;;;;;;;5001468;28;20651;-70
2023/04/27 04:29:55;;;;;;;13.20;9.70;;;;;;;;;;5019329;28;20301;-67
2023/04/27 04:32:21;;;;;;;13.07;9.23;;;;;;;;;;5019118;28;20611;-66
2023/04/27 04:34:50;;;;;;;22.60;9.40;;;;;;;;;;5001209;28;20649;-68
2023/04/27 04:37:17;;;;;;;19.27;9.30;;;;;;;;;;5019357;28;20172;-69
2023/04/27 04:39:43;;;;;;;16.23;10.10;;;;;;;;;;5001427;28;20180;-69
2023/04/27 04:42:10;;;;;;;17.97;8.80;;;;;;;;;;5001305;28;20202;-69
2023/04/27 04:44:35;;;;;;;12.50;8.43;;;;;;;;;;5019223;28;20606;-69
2023/04/27 04:47:01;;;;;;;14.50;9.00;;;;;;;;;;5018424;28;20188;-68
2023/04/27 04:49:27;;;;;;;16.40;9.73;;;;;;;;;;5018905;28;20184;-69
2023/04/27 04:51:53;;;;;;;12.73;8.87;;;;;;;;;;5001349;28;20203;-67
2023/04/27 04:54:20;;;;;;;21.40;10.23;;;;;;;;;;5018736;28;20188;-68
2023/04/27 04:56:46;;;;;;;15.37;9.33;;;;;;;;;;5001648;28;20203;-68
2023/04/27 04:59:12;;;;;;;14.17;9.20;;;;;;;;;;5018858;28;20643;-68
2023/04/27 05:01:38;;;;;;;16.90;8.53;;;;;;;;;;5000885;28;20282;-67
2023/04/27 05:04:04;;;;;;;18.30;9.17;;;;;;;;;;5018426;28;20206;-68
2023/04/27 05:06:31;;;;;;;18.90;10.07;;;;;;;;;;5000922;28;20183;-66
2023/04/27 05:08:57;;;;;;;15.93;8.67;;;;;;;;;;5018875;28;20222;-68
2023/04/27 05:11:23;;;;;;;16.70;9.80;;;;;;;;;;5000288;28;20261;-67
2023/04/27 05:13:49;;;;;;;18.67;10.03;;;;;;;;;;4999789;28;20200;-67
2023/04/27 05:16:15;;;;;;;18.03;9.63;;;;;;;;;;5017714;28;20699;-67
2023/04/27 05:18:41;;;;;;;14.83;9.23;;;;;;;;;;5017556;28;20199;-68
2023/04/27 05:21:13;;;;;;;15.70;9.77;;;;;;;;;;5017494;28;20183;-68
2023/04/27 05:23:39;;;;;;;14.77;9.47;;;;;;;;;;5000442;28;20203;-69
2023/04/27 05:26:12;;;;;;;23.87;10.57;;;;;;;;;;5017980;28;20259;-69
2023/04/27 05:28:38;;;;;;;16.83;9.43;;;;;;;;;;5018717;28;20646;-69
2023/04/27 05:31:05;;;;;;;15.07;9.53;;;;;;;;;;5001390;28;20191;-68
2023/04/27 05:33:31;;;;;;;13.83;8.07;;;;;;;;;;5000047;28;20251;-65
2023/04/27 05:35:57;;;;;;;18.10;8.63;;;;;;;;;;5018030;28;20180;-69
2023/04/27 05:38:23;;;;;;;14.17;8.67;;;;;;;;;;5068739;23;20265;-72
2023/04/27 05:40:58;;;;;;;19.93;8.67;;;;;;;;;;5051587;28;20637;-71
2023/04/27 05:43:25;;;;;;;11.67;8.43;;;;;;;;;;5029947;28;20186;-72
2023/04/27 05:45:51;;;;;;;13.67;8.27;;;;;;;;;;5018567;28;20187;-72
2023/04/27 05:48:17;;;;;;;14.93;8.13;;;;;;;;;;5018118;28;20692;-72
2023/04/27 05:50:43;;;;;;;11.83;8.43;;;;;;;;;;5018050;28;20183;-72
2023/04/27 05:53:10;;;;;;;14.63;8.83;;;;;;;;;;5036498;28;20230;-73
2023/04/27 05:55:39;;;;;;;10.40;8.17;;;;;;;;;;5017598;28;20698;-72
2023/04/27 05:58:05;;;;;;;12.43;7.80;;;;;;;;;;5037893;28;20273;-72
2023/04/27 06:00:31;;;;;;;15.80;8.70;;;;;;;;;;5035817;28;20175;-73
2023/04/27 06:02:57;;;;;;;10.43;7.13;;;;;;;;;;5017507;28;20185;-73
2023/04/27 06:05:23;;;;;;;14.67;7.43;;;;;;;;;;5017333;28;20314;-72
2023/04/27 06:07:49;;;;;;;16.87;8.57;;;;;;;;;;5035030;28;20195;-73
2023/04/27 06:10:15;;;;;;;11.40;7.03;;;;;;;;;;5017240;28;20179;-73
2023/04/27 06:12:41;;;;;;;9.93;6.73;;;;;;;;;;5017305;28;20203;-73
2023/04/27 06:15:08;;;;;;;12.20;7.50;;;;;;;;;;5035356;28;20179;-73
2023/04/27 06:17:38;;;;;;;16.27;6.70;;;;;;;;;;5017873;28;20226;-73
2023/04/27 06:20:08;;;;;;;11.57;5.27;;;;;;;;;;5035049;28;20205;-72
2023/04/27 06:22:35;;;;;;;11.63;6.53;;;;;;;;;;5034781;28;20205;-73
2023/04/27 06:25:02;;;;;;;13.53;6.67;;;;;;;;;;5035315;28;20179;-73
2023/04/27 06:27:28;;;;;;;9.77;5.83;;;;;;;;;;5017717;28;20565;-73
2023/04/27 06:29:54;;;;;;;13.57;6.30;;;;;;;;;;5017723;28;20189;-73
2023/04/27 06:32:20;;;;;;;11.63;5.93;;;;;;;;;;5020770;28;20203;-73
2023/04/27 06:34:46;;;;;;;11.83;5.90;;;;;;;;;;5037910;28;20625;-73
2023/04/27 06:37:14;;;;;;;16.10;6.93;;;;;;;;;;5036679;28;20210;-73
2023/04/27 06:39:40;;;;;;;9.90;4.60;;;;;;;;;;5038355;28;20172;-73
2023/04/27 06:42:06;;;;;;;14.37;6.00;;;;;;;;;;5036764;28;20186;-73
2023/04/27 06:44:32;;;;;;;12.47;5.77;;;;;;;;;;5036431;28;20185;-73
2023/04/27 06:46:58;;;;;;;16.97;5.53;;;;;;;;;;5035832;28;20199;-73
2023/04/27 06:49:24;;;;;;;9.93;5.50;;;;;;;;;;5017163;28;20186;-73
2023/04/27 06:51:53;;;;;;;12.73;5.53;;;;;;;;;;5016918;28;20196;-73
2023/04/27 06:54:19;;;;;;;10.77;4.93;;;;;;;;;;5034823;28;20175;-73
2023/04/27 06:56:45;;;;;;;7.73;5.43;;;;;;;;;;5034616;28;20199;-72
2023/04/27 06:59:11;;;;;;;8.43;5.00;;;;;;;;;;5035483;28;20171;-73
2023/04/27 07:01:37;;;;;;;12.50;5.10;;;;;;;;;;5036514;28;20183;-73
2023/04/27 07:04:06;;;;;;;15.37;5.13;;;;;;;;;;5019411;28;20183;-74
2023/04/27 07:06:32;;;;;;;8.37;5.23;;;;;;;;;;5019722;28;20190;-73
2023/04/27 07:08:58;;;;;;;12.37;5.77;;;;;;;;;;5019553;28;20270;-73
2023/04/27 07:11:25;;;;;;;15.33;6.53;;;;;;;;;;5036440;28;20175;-73
2023/04/27 07:13:51;;;;;;;13.87;5.63;;;;;;;;;;5019411;28;20179;-72
2023/04/27 07:16:17;;;;;;;19.87;5.50;;;;;;;;;;5019773;28;20171;-71
2023/04/27 07:18:43;;;;;;;13.97;5.90;;;;;;;;;;5037354;28;20198;-73
2023/04/27 07:21:09;;;;;;;14.83;6.73;;;;;;;;;;5034727;28;20696;-72
2023/04/27 07:23:35;;;;;;;16.47;6.17;;;;;;;;;;5016550;28;20203;-71
2023/04/27 07:26:01;;;;;;;12.43;6.50;;;;;;;;;;5017183;28;20178;-72
2023/04/27 07:28:39;;;;;;;14.63;6.60;;;;;;;;;;5035297;28;20601;-72
2023/04/27 07:31:05;;;;;;;13.20;6.97;;;;;;;;;;5021916;28;20189;-73
2023/04/27 07:33:32;;;;;;;9.17;5.57;;;;;;;;;;5035566;28;20215;-74
2023/04/27 07:35:58;;;;;;;8.10;5.37;;;;;;;;;;5051791;28;20244;-73
2023/04/27 07:38:24;;;;;;;8.97;6.07;;;;;;;;;;5050776;28;20218;-71
2023/04/27 07:40:50;;;;;;;9.93;6.20;;;;;;;;;;5024126;28;20206;-72
2023/04/27 07:43:17;;;;;;;11.90;5.93;;;;;;;;;;5028609;28;20279;-73
2023/04/27 07:45:44;;;;;;;8.97;5.77;;;;;;;;;;5017734;28;20183;-73
2023/04/27 07:48:10;;;;;;;25.37;5.63;;;;;;;;;;5035865;28;20561;-73
2023/04/27 07:50:36;;;;;;;14.33;7.00;;;;;;;;;;5033965;28;20237;-74
2023/04/27 07:53:02;;;;;;;13.43;6.57;;;;;;;;;;5016329;28;20211;-73
2023/04/27 07:55:28;;;;;;;14.60;6.10;;;;;;;;;;5037533;28;20186;-74
2023/04/27 07:57:55;;;;;;;8.90;5.47;;;;;;;;;;5037155;28;20198;-73
2023/04/27 08:00:21;;;;;;;13.73;6.33;;;;;;;;;;5037128;28;20179;-74
2023/04/27 08:02:47;;;;;;;9.80;5.67;;;;;;;;;;5037044;28;20633;-73
2023/04/27 08:05:13;;;;;;;10.27;6.20;;;;;;;;;;5037432;28;20229;-74
2023/04/27 08:07:40;;;;;;;10.07;5.93;;;;;;;;;;5037042;28;20195;-74
2023/04/27 08:10:09;;;;;;;12.40;7.13;;;;;;;;;;5019260;28;20190;-74
2023/04/27 08:12:35;;;;;;;13.90;5.03;;;;;;;;;;5036879;28;20238;-72
2023/04/27 08:15:01;;;;;;;8.57;5.10;;;;;;;;;;5037054;28;20167;-72
2023/04/27 08:17:26;;;;;;;13.40;5.67;;;;;;;;;;5036971;28;20246;-73
2023/04/27 08:19:52;;;;;;;8.17;5.30;;;;;;;;;;5019291;28;20179;-73
2023/04/27 08:22:18;;;;;;;8.50;4.20;;;;;;;;;;5037049;28;20175;-72
2023/04/27 08:24:44;;;;;;;8.20;4.73;;;;;;;;;;5019695;28;20196;-73
2023/04/27 08:27:10;;;;;;;4.23;3.83;;;;;;;;;;5019645;28;20206;-72
2023/04/27 08:29:36;;;;;;;9.03;4.07;;;;;;;;;;5037581;28;20183;-74
2023/04/27 08:32:03;;;;;;;8.60;2.93;;;;;;;;;;5019423;28;20203;-72
2023/04/27 08:34:29;;;;;;;5.57;3.67;;;;;;;;;;5019430;28;20175;-70
2023/04/27 08:36:56;;;;;;;8.03;4.40;;;;;;;;;;5036572;28;20321;-73
2023/04/27 08:39:22;;;;;;;6.67;4.53;;;;;;;;;;5038960;28;20178;-72
2023/04/27 08:41:48;;;;;;;5.13;4.40;;;;;;;;;;5018867;28;20276;-72
2023/04/27 08:44:15;;;;;;;7.70;3.73;;;;;;;;;;5021148;28;20273;-72
2023/04/27 08:46:41;;;;;;;8.30;3.90;;;;;;;;;;5039972;28;20655;-72
2023/04/27 08:49:07;;;;;;;8.23;4.03;;;;;;;;;;5039230;28;20554;-73
2023/04/27 08:51:33;;;;;;;11.73;4.13;;;;;;;;;;5021462;28;20206;-73
2023/04/27 08:53:59;;;;;;;4.93;3.73;;;;;;;;;;5022283;28;20187;-71
2023/04/27 08:56:27;;;;;;;7.00;3.27;;;;;;;;;;5019927;28;20179;-72
2023/04/27 08:58:53;;;;;;;11.60;4.23;;;;;;;;;;5022365;28;20203;-73
2023/04/27 09:01:19;;;;;;;11.00;4.10;;;;;;;;;;5039457;28;20551;-73
2023/04/27 09:03:45;;;;;;;7.83;3.43;;;;;;;;;;5036504;28;20676;-72
2023/04/27 09:06:12;;;;;;;5.80;3.20;;;;;;;;;;5018051;28;20179;-72
2023/04/27 09:08:45;;;;;;;9.37;3.83;;;;;;;;;;5018705;28;20290;-72
2023/04/27 09:11:12;;;;;;;10.17;3.87;;;;;;;;;;5037270;28;20178;-72
2023/04/27 09:13:38;;;;;;;7.40;3.50;;;;;;;;;;5036396;28;20229;-72
2023/04/27 09:16:05;;;;;;;3.67;2.87;;;;;;;;;;5019173;28;20179;-72
2023/04/27 09:18:35;;;;;;;7.13;3.10;;;;;;;;;;5036214;28;20214;-72
2023/04/27 09:21:03;;;;;;;3.73;2.97;;;;;;;;;;5037448;28;20511;-73
2023/04/27 09:23:33;;;;;;;4.00;2.87;;;;;;;;;;5036063;28;20249;-71
2023/04/27 09:26:00;;;;;;;6.57;3.30;;;;;;;;;;5036220;28;20657;-73
2023/04/27 09:28:27;;;;;;;4.40;2.97;;;;;;;;;;5036032;28;20696;-72
2023/04/27 09:30:54;;;;;;;4.87;2.90;;;;;;;;;;5018241;28;20718;-71
2023/04/27 09:33:24;;;;;;;6.83;3.57;;;;;;;;;;5019884;28;20211;-72
2023/04/27 09:35:50;;;;;;;4.33;3.40;;;;;;;;;;5021150;28;20224;-72
2023/04/27 09:38:20;;;;;;;8.77;4.67;;;;;;;;;;5017724;28;20215;-72
2023/04/27 09:40:46;;;;;;;6.93;4.17;;;;;;;;;;5017621;28;20179;-73
2023/04/27 09:43:13;;;;;;;10.50;3.47;;;;;;;;;;5035542;28;20652;-73
2023/04/27 09:45:39;;;;;;;4.70;3.17;;;;;;;;;;5039262;28;20183;-72
2023/04/27 09:48:06;;;;;;;4.97;3.57;;;;;;;;;;5038320;28;20206;-73
2023/04/27 09:50:38;;;;;;;4.10;3.23;;;;;;;;;;5040128;28;20270;-72
2023/04/27 09:53:18;;;;;;;3.40;3.10;;;;;;;;;;5019134;28;20234;-73
2023/04/27 09:55:49;;;;;;;5.07;3.47;;;;;;;;;;5038889;28;20167;-72
2023/04/27 09:58:34;;;;;;;7.57;3.60;;;;;;;;;;5019417;28;20210;-72
2023/04/27 10:01:05;;;;;;;6.57;4.70;;;;;;;;;;5035495;28;20205;-72
2023/04/27 10:03:50;;;;;;;6.73;3.63;;;;;;;;;;5035215;28;20178;-73
2023/04/27 10:06:38;;;;;;;7.53;4.20;;;;;;;;;;5017229;28;20194;-73
2023/04/27 10:09:05;;;;;;;6.33;4.03;;;;;;;;;;5034955;28;20167;-73
2023/04/27 10:11:42;;;;;;;7.40;3.63;;;;;;;;;;5034851;28;20171;-74
2023/04/27 10:14:09;;;;;;;5.97;4.27;;;;;;;;;;5016970;28;20205;-74
2023/04/27 10:16:59;;;;;;;8.93;4.40;;;;;;;;;;5016789;28;20554;-74
2023/04/27 10:19:25;;;;;;;4.80;3.80;;;;;;;;;;5024730;28;20191;-73
2023/04/27 10:21:52;;;;;;;3.70;3.20;;;;;;;;;;5034871;28;20245;-73
2023/04/27 10:24:18;;;;;;;7.93;3.70;;;;;;;;;;5016927;28;20179;-73
2023/04/27 10:26:47;;;;;;;8.03;3.97;;;;;;;;;;5034676;28;20252;-73
2023/04/27 10:29:15;;;;;;;7.80;4.27;;;;;;;;;;5035509;28;20202;-73
2023/04/27 10:31:47;;;;;;;5.37;3.57;;;;;;;;;;5016394;28;20213;-73
2023/04/27 10:34:17;;;;;;;6.57;3.87;;;;;;;;;;5034239;28;20187;-73
2023/04/27 10:36:43;;;;;;;6.07;3.63;;;;;;;;;;5034378;28;20215;-73
2023/04/27 10:39:17;;;;;;;5.10;3.40;;;;;;;;;;5016608;28;20607;-73
2023/04/27 10:41:53;;;;;;;6.37;3.60;;;;;;;;;;5034242;28;20175;-73
2023/04/27 10:44:20;;;;;;;4.50;3.73;;;;;;;;;;5016532;28;20194;-73
2023/04/27 10:46:52;;;;;;;4.53;3.70;;;;;;;;;;5034442;28;20203;-73
2023/04/27 10:49:18;;;;;;;6.77;4.10;;;;;;;;;;5034074;28;20649;-73
2023/04/27 10:51:44;;;;;;;7.80;4.17;;;;;;;;;;5016644;28;20203;-73
2023/04/27 10:54:11;;;;;;;7.43;4.30;;;;;;;;;;5034024;28;20582;-73
2023/04/27 10:56:37;;;;;;;6.93;3.60;;;;;;;;;;5033798;28;20262;-73
2023/04/27 10:59:03;;;;;;;6.87;3.73;;;;;;;;;;5033885;28;20171;-73
2023/04/27 11:01:29;;;;;;;7.17;4.07;;;;;;;;;;5033694;28;20179;-73
2023/04/27 11:03:56;;;;;;;5.97;4.07;;;;;;;;;;5033863;28;20254;-73
2023/04/27 11:06:23;;;;;;;7.87;4.50;;;;;;;;;;5034234;28;20186;-74
2023/04/27 11:08:49;;;;;;;7.63;4.20;;;;;;;;;;5016965;28;20715;-74
2023/04/27 11:11:16;;;;;;;6.77;4.23;;;;;;;;;;5018081;28;20179;-72
2023/04/27 11:13:42;;;;;;;7.83;4.00;;;;;;;;;;5035533;28;20183;-72
2023/04/27 11:16:08;;;;;;;5.57;3.63;;;;;;;;;;5034022;28;20595;-73
2023/04/27 11:18:36;;;;;;;6.20;4.10;;;;;;;;;;5033726;28;20205;-73
2023/04/27 11:21:06;;;;;;;8.03;4.27;;;;;;;;;;5016105;28;20217;-72
2023/04/27 11:23:38;;;;;;;7.30;3.83;;;;;;;;;;5017287;28;20599;-72
2023/04/27 11:26:15;;;;;;;7.43;3.73;;;;;;;;;;5033770;28;20167;-73
2023/04/27 11:28:45;;;;;;;7.70;4.33;;;;;;;;;;5033777;28;20673;-73
2023/04/27 11:31:11;;;;;;;6.77;4.17;;;;;;;;;;5015986;28;20213;-73
2023/04/27 11:33:38;;;;;;;9.13;3.70;;;;;;;;;;5015947;28;20289;-72
2023/04/27 11:36:15;;;;;;;5.57;4.17;;;;;;;;;;5016065;28;20550;-73
2023/04/27 11:38:41;;;;;;;6.73;3.03;;;;;;;;;;5016521;28;20218;-72
2023/04/27 11:41:07;;;;;;;7.70;4.27;;;;;;;;;;5051114;23;20238;-68
2023/04/27 11:43:34;;;;;;;6.10;4.10;;;;;;;;;;4995894;28;20207;-69
2023/04/27 11:46:03;;;;;;;5.93;4.00;;;;;;;;;;5013471;28;20179;-69
2023/04/27 11:48:29;;;;;;;9.10;3.17;;;;;;;;;;4995978;28;20563;-69
2023/04/27 11:51:00;;;;;;;5.00;3.90;;;;;;;;;;4996022;28;20204;-68
2023/04/27 11:53:31;;;;;;;8.80;4.10;;;;;;;;;;5013557;28;20200;-68
2023/04/27 11:55:58;;;;;;;5.60;3.63;;;;;;;;;;4995861;28;20180;-69
2023/04/27 11:58:25;;;;;;;5.70;3.83;;;;;;;;;;5013577;28;20603;-68
2023/04/27 12:00:51;;;;;;;5.87;3.93;;;;;;;;;;5013433;28;20670;-69
2023/04/27 12:03:17;;;;;;;6.70;4.30;;;;;;;;;;4995584;28;20191;-68
2023/04/27 12:05:50;;;;;;;6.50;4.50;;;;;;;;;;4995719;28;20184;-68
2023/04/27 12:08:16;;;;;;;6.70;4.50;;;;;;;;;;5013875;28;20186;-68
2023/04/27 12:10:42;;;;;;;7.40;4.77;;;;;;;;;;5013056;28;20199;-69
2023/04/27 12:13:08;;;;;;;6.17;4.23;;;;;;;;;;5013445;28;20196;-69
2023/04/27 12:15:34;;;;;;;7.67;4.37;;;;;;;;;;5013308;28;20179;-69
2023/04/27 12:18:00;;;;;;;6.33;4.60;;;;;;;;;;5013235;28;20183;-69
2023/04/27 12:20:27;;;;;;;5.93;4.37;;;;;;;;;;4995533;28;20172;-69
2023/04/27 12:22:53;;;;;;;8.73;4.67;;;;;;;;;;4995447;28;20183;-69
2023/04/27 12:25:20;;;;;;;5.57;3.93;;;;;;;;;;5013044;28;20192;-69
2023/04/27 12:27:47;;;;;;;4.77;3.77;;;;;;;;;;4995770;28;20266;-69
2023/04/27 12:30:13;;;;;;;8.60;4.50;;;;;;;;;;5013167;28;20176;-69
2023/04/27 12:32:39;;;;;;;4.83;4.33;;;;;;;;;;4995065;28;20207;-68
2023/04/27 12:35:06;;;;;;;7.57;4.57;;;;;;;;;;4995399;28;20214;-68
2023/04/27 12:37:32;;;;;;;6.33;4.23;;;;;;;;;;4995300;28;20241;-68
2023/04/27 12:39:58;;;;;;;5.73;4.00;;;;;;;;;;4995415;28;20187;-68
2023/04/27 12:42:24;;;;;;;4.63;4.20;;;;;;;;;;4998568;28;20310;-68
2023/04/27 12:44:50;;;;;;;6.47;3.90;;;;;;;;;;4999960;28;20184;-67
2023/04/27 12:47:17;;;;;;;5.90;4.43;;;;;;;;;;4998791;28;20188;-68
2023/04/27 12:49:43;;;;;;;4.70;3.83;;;;;;;;;;5016433;28;20191;-69
2023/04/27 12:52:10;;;;;;;6.63;4.60;;;;;;;;;;5016342;28;20808;-69
2023/04/27 12:54:36;;;;;;;7.13;4.60;;;;;;;;;;5016714;28;20183;-68
2023/04/27 12:57:05;;;;;;;5.37;4.37;;;;;;;;;;5016280;28;20176;-69
2023/04/27 12:59:31;;;;;;;10.00;4.83;;;;;;;;;;4998526;28;20213;-68
2023/04/27 13:01:57;;;;;;;8.60;4.60;;;;;;;;;;5016292;28;20601;-69
2023/04/27 13:04:23;;;;;;;6.43;3.97;;;;;;;;;;5016226;28;20249;-69
2023/04/27 13:06:49;;;;;;;7.30;4.77;;;;;;;;;;5016033;28;20186;-70
2023/04/27 13:09:15;;;;;;;6.60;5.20;;;;;;;;;;4998400;28;20180;-69
2023/04/27 13:11:41;;;;;;;5.73;5.10;;;;;;;;;;5015783;28;20701;-69
2023/04/27 13:14:08;;;;;;;5.77;4.60;;;;;;;;;;4998383;28;20214;-69
2023/04/27 13:16:34;;;;;;;6.90;5.00;;;;;;;;;;4998296;28;20183;-69
2023/04/27 13:19:00;;;;;;;7.50;5.30;;;;;;;;;;5015803;28;20172;-69
2023/04/27 13:21:28;;;;;;;7.60;4.73;;;;;;;;;;4998134;28;20235;-69
2023/04/27 13:23:55;;;;;;;6.60;5.03;;;;;;;;;;5015708;28;20175;-69
2023/04/27 13:26:21;;;;;;;6.23;4.60;;;;;;;;;;4998066;28;20184;-69
2023/04/27 13:28:48;;;;;;;6.57;4.97;;;;;;;;;;5015710;28;20176;-68
2023/04/27 13:31:14;;;;;;;6.77;5.27;;;;;;;;;;4997996;28;20690;-69
2023/04/27 13:33:41;;;;;;;6.17;5.40;;;;;;;;;;5015436;28;20196;-69
2023/04/27 13:36:08;;;;;;;8.00;4.77;;;;;;;;;;5016089;28;20260;-69
2023/04/27 13:38:34;;;;;;;5.83;4.80;;;;;;;;;;4997900;28;20556;-69
2023/04/27 13:41:00;;;;;;;5.17;4.67;;;;;;;;;;4997694;28;20211;-69
2023/04/27 13:43:26;;;;;;;7.60;4.80;;;;;;;;;;4997909;28;20179;-69
2023/04/27 13:45:54;;;;;;;11.17;4.90;;;;;;;;;;5015408;28;20191;-69
2023/04/27 13:48:20;;;;;;;6.43;4.40;;;;;;;;;;5015721;28;20180;-68
2023/04/27 13:50:46;;;;;;;8.57;5.03;;;;;;;;;;5015468;28;20298;-69
2023/04/27 13:53:12;;;;;;;9.60;5.20;;;;;;;;;;5015769;28;20206;-68
2023/04/27 13:55:38;;;;;;;11.00;4.77;;;;;;;;;;5015440;28;20238;-68
2023/04/27 13:58:04;;;;;;;8.77;4.87;;;;;;;;;;5015210;28;20554;-68
2023/04/27 14:00:32;;;;;;;7.30;4.77;;;;;;;;;;4997507;28;20179;-68
2023/04/27 14:02:59;;;;;;;6.33;4.30;;;;;;;;;;5015183;28;20638;-68
2023/04/27 14:05:25;;;;;;;9.23;5.80;;;;;;;;;;4997470;28;20653;-67
2023/04/27 14:07:52;;;;;;;6.00;4.83;;;;;;;;;;5015618;28;20237;-67
2023/04/27 14:10:18;;;;;;;7.43;5.07;;;;;;;;;;5015251;28;20183;-68
2023/04/27 14:12:44;;;;;;;9.93;5.53;;;;;;;;;;5014780;28;20195;-69
2023/04/27 14:15:11;;;;;;;7.20;4.80;;;;;;;;;;4997061;28;20658;-68
2023/04/27 14:17:37;;;;;;;9.90;5.33;;;;;;;;;;5014858;28;20749;-68
2023/04/27 14:20:05;;;;;;;10.17;5.90;;;;;;;;;;4997180;28;20682;-68
2023/04/27 14:22:32;;;;;;;8.50;6.10;;;;;;;;;;4996915;28;20589;-68
2023/04/27 14:24:58;;;;;;;7.07;5.43;;;;;;;;;;5014704;28;20619;-68
2023/04/27 14:27:24;;;;;;;13.33;7.07;;;;;;;;;;5014633;28;20184;-68
2023/04/27 14:29:50;;;;;;;8.53;6.27;;;;;;;;;;4996786;28;20286;-68
2023/04/27 14:32:16;;;;;;;7.63;5.80;;;;;;;;;;5014636;28;20576;-69